createdAt,value
2022-11-07T00:04:47.050Z,75.64
2022-11-07T00:09:38.796Z,75.63
2022-11-07T00:14:31.351Z,76.25
2022-11-07T00:19:23.019Z,76.61
2022-11-07T00:24:18.050Z,76.79
2022-11-07T00:29:14.298Z,77.12
2022-11-07T00:34:06.200Z,77.67
2022-11-07T00:38:58.092Z,77.80
2022-11-07T00:43:49.926Z,78.21
2022-11-07T00:48:41.839Z,77.71
2022-11-07T00:53:33.765Z,77.34
2022-11-07T00:58:25.425Z,76.88
2022-11-07T01:03:36.404Z,76.92
2022-11-07T01:08:28.621Z,76.15
2022-11-07T01:13:20.381Z,75.41
2022-11-07T01:18:12.205Z,75.04
2022-11-07T01:23:03.980Z,74.57
2022-11-07T01:27:55.599Z,74.48
2022-11-07T01:32:47.217Z,73.98
2022-11-07T01:37:38.781Z,74.15
2022-11-07T01:42:31.328Z,74.23
2022-11-07T01:47:27.051Z,74.28
2022-11-07T01:52:28.340Z,74.75
2022-11-07T01:57:33.294Z,75.28
2022-11-07T02:02:27.669Z,76.15
2022-11-07T02:07:22.387Z,76.33
2022-11-07T02:12:15.110Z,76.40
2022-11-07T02:17:07.408Z,76.50
2022-11-07T02:22:07.678Z,75.96
2022-11-07T02:27:03.588Z,76.31
2022-11-07T02:32:07.575Z,76.69
2022-11-07T02:37:00.793Z,76.80
2022-11-07T02:41:54.555Z,77.02
2022-11-07T02:46:46.938Z,77.65
2022-11-07T02:51:40.530Z,78.03
2022-11-07T02:56:33.474Z,78.40
2022-11-07T03:01:25.352Z,78.28
2022-11-07T03:06:20.348Z,78.42
2022-11-07T03:11:13.727Z,78.30
2022-11-07T03:16:06.870Z,78.22
2022-11-07T03:20:58.542Z,78.67
2022-11-07T03:25:50.137Z,78.85
2022-11-07T03:30:41.824Z,78.88
2022-11-07T03:35:33.429Z,79.38
2022-11-07T03:40:25.930Z,79.21
2022-11-07T03:45:17.729Z,78.80
2022-11-07T03:50:14.138Z,78.84
2022-11-07T03:55:06.352Z,79.21
2022-11-07T03:59:59.731Z,78.97
2022-11-07T04:04:51.363Z,78.53
2022-11-07T04:09:42.948Z,79.67
2022-11-07T04:14:53.548Z,79.19
2022-11-07T04:19:55.975Z,79.02
2022-11-07T04:24:47.670Z,79.27
2022-11-07T04:29:39.862Z,79.58
2022-11-07T04:34:31.545Z,79.57
2022-11-07T04:39:23.447Z,79.92
2022-11-07T04:44:15.075Z,79.82
2022-11-07T04:49:07.676Z,79.58
2022-11-07T04:53:59.342Z,78.65
2022-11-07T04:58:52.057Z,78.08
2022-11-07T05:03:43.611Z,77.21
2022-11-07T05:08:35.916Z,76.88
2022-11-07T05:13:27.543Z,76.97
2022-11-07T05:18:21.258Z,76.69
2022-11-07T05:23:13.735Z,76.65
2022-11-07T05:28:06.669Z,76.46
2022-11-07T05:32:58.353Z,76.56
2022-11-07T05:37:50.854Z,76.19
2022-11-07T05:42:42.502Z,75.19
2022-11-07T05:47:34.145Z,74.72
2022-11-07T05:52:25.715Z,73.89
2022-11-07T05:57:17.921Z,72.71
2022-11-07T06:02:09.639Z,72.94
2022-11-07T06:07:02.967Z,71.33
2022-11-07T06:11:54.752Z,71.05
2022-11-07T06:16:47.256Z,70.22
2022-11-07T06:21:38.847Z,69.96
2022-11-07T06:26:30.614Z,70.03
2022-11-07T06:31:22.260Z,69.61
2022-11-07T06:36:14.757Z,69.18
2022-11-07T06:41:08.679Z,69.20
2022-11-07T06:46:03.890Z,68.88
2022-11-07T06:51:00.536Z,68.93
2022-11-07T06:55:52.533Z,68.25
2022-11-07T07:00:44.277Z,67.93
2022-11-07T07:05:35.992Z,68.58
2022-11-07T07:10:27.586Z,68.98
2022-11-07T07:15:20.369Z,68.91
2022-11-07T07:20:12.232Z,68.82
2022-11-07T07:25:03.965Z,68.64
2022-11-07T07:29:55.569Z,68.24
2022-11-07T07:34:47.479Z,67.20
2022-11-07T07:39:39.131Z,67.22
2022-11-07T07:44:31.488Z,67.64
2022-11-07T07:49:23.058Z,68.26
2022-11-07T07:54:15.481Z,68.01
2022-11-07T07:59:07.640Z,68.45
2022-11-07T08:04:02.090Z,68.76
2022-11-07T08:08:54.276Z,68.91
2022-11-07T08:13:46.016Z,69.20
2022-11-07T08:18:40.808Z,69.45
2022-11-07T08:23:34.493Z,69.60
2022-11-07T08:28:28.798Z,69.41
2022-11-07T08:33:20.984Z,68.90
2022-11-07T08:38:12.626Z,69.21
2022-11-07T08:43:04.383Z,68.14
2022-11-07T08:47:58.055Z,67.82
2022-11-07T08:52:49.685Z,67.86
2022-11-07T08:57:41.314Z,67.62
2022-11-07T09:03:18.417Z,67.87
2022-11-07T09:07:44.597Z,68.57
2022-11-07T09:12:36.236Z,66.81
2022-11-07T09:17:28.058Z,66.16
2022-11-07T09:22:19.909Z,66.19
2022-11-07T09:27:11.526Z,66.31
2022-11-07T09:32:17.491Z,65.87
2022-11-07T09:37:15.526Z,64.99
2022-11-07T09:42:24.726Z,64.68
2022-11-07T09:47:38.460Z,64.69
2022-11-07T09:52:52.653Z,64.25
2022-11-07T09:57:45.593Z,64.05
2022-11-07T10:02:43.929Z,63.86
2022-11-07T10:07:38.538Z,63.66
2022-11-07T10:12:30.076Z,63.86
2022-11-07T10:17:55.518Z,63.78
2022-11-07T10:23:21.602Z,62.95
2022-11-07T10:28:18.963Z,61.57
2022-11-07T10:33:41.756Z,61.24
2022-11-07T10:38:35.496Z,60.88
2022-11-07T10:43:35.210Z,59.56
2022-11-07T10:48:29.477Z,58.61
2022-11-07T10:53:22.947Z,57.02
2022-11-07T10:58:21.923Z,57.20
2022-11-07T11:03:41.907Z,58.58
2022-11-07T11:08:37.693Z,58.86
2022-11-07T11:13:32.053Z,57.53
2022-11-07T11:18:23.902Z,58.27
2022-11-07T11:23:22.253Z,59.22
2022-11-07T11:28:22.439Z,58.66
2022-11-07T11:33:25.371Z,59.26
2022-11-07T11:38:28.275Z,58.81
2022-11-07T11:43:23.147Z,56.66
2022-11-07T11:48:27.803Z,56.73
2022-11-07T11:53:21.891Z,56.35
2022-11-07T11:58:47.522Z,56.17
2022-11-07T12:04:05.493Z,55.79
2022-11-07T12:09:19.566Z,55.25
2022-11-07T12:14:23.386Z,55.53
2022-11-07T12:19:21.823Z,55.07
2022-11-07T12:24:49.001Z,56.05
2022-11-07T12:30:06.140Z,55.87
2022-11-07T12:35:23.066Z,55.71
2022-11-07T12:40:17.761Z,55.94
2022-11-07T12:45:18.575Z,56.08
2022-11-07T12:50:40.286Z,56.71
2022-11-07T12:55:57.515Z,56.26
2022-11-07T13:00:51.087Z,56.64
2022-11-07T13:05:48.982Z,55.67
2022-11-07T13:10:56.612Z,55.10
2022-11-07T13:16:14.177Z,55.33
2022-11-07T13:21:02.557Z,54.99
2022-11-07T13:26:07.031Z,55.65
2022-11-07T13:31:07.676Z,55.63
2022-11-07T13:36:15.711Z,55.59
2022-11-07T13:41:08.217Z,55.89
2022-11-07T13:46:06.872Z,56.05
2022-11-07T13:51:06.123Z,57.06
2022-11-07T13:56:03.482Z,57.31
2022-11-07T14:00:55.331Z,57.00
2022-11-07T14:05:47.862Z,57.23
2022-11-07T14:10:41.942Z,57.94
2022-11-07T14:15:35.302Z,58.15
2022-11-07T14:20:26.999Z,58.52
2022-11-07T14:25:33.272Z,58.88
2022-11-07T14:30:27.479Z,58.88
2022-11-07T14:35:24.021Z,58.86
2022-11-07T14:40:15.773Z,59.79
2022-11-07T14:45:08.354Z,60.23
2022-11-07T14:50:01.890Z,60.12
2022-11-07T14:55:03.031Z,60.48
2022-11-07T14:59:54.881Z,60.57
2022-11-07T15:04:47.999Z,60.83
2022-11-07T15:09:40.896Z,60.93
2022-11-07T15:14:35.977Z,61.10
2022-11-07T15:19:27.708Z,61.58
2022-11-07T15:24:32.863Z,61.54
2022-11-07T15:29:24.545Z,61.91
2022-11-07T15:34:29.037Z,62.40
2022-11-07T15:39:30.011Z,63.03
2022-11-07T15:44:21.720Z,63.20
2022-11-07T15:49:14.703Z,64.10
2022-11-07T15:54:12.859Z,64.61
2022-11-07T15:59:06.085Z,64.88
2022-11-07T16:03:57.656Z,65.46
2022-11-07T16:08:49.550Z,65.33
2022-11-07T16:13:41.399Z,65.54
2022-11-07T16:18:41.699Z,66.02
2022-11-07T16:23:33.384Z,66.00
2022-11-07T16:28:33.734Z,66.37
2022-11-07T16:33:26.142Z,66.39
2022-11-07T16:38:20.386Z,66.65
2022-11-07T16:43:12.635Z,66.39
2022-11-07T16:48:05.122Z,66.29
2022-11-07T16:52:56.730Z,66.22
2022-11-07T16:57:48.417Z,66.30
2022-11-07T17:02:40.071Z,66.25
2022-11-07T17:07:31.782Z,66.61
2022-11-07T17:12:23.645Z,66.73
2022-11-07T17:17:17.728Z,67.17
2022-11-07T17:22:11.032Z,68.10
2022-11-07T17:27:03.885Z,68.13
2022-11-07T17:31:55.529Z,68.17
2022-11-07T17:36:50.513Z,68.24
2022-11-07T17:41:43.747Z,68.56
2022-11-07T17:46:37.238Z,68.42
2022-11-07T17:51:29.036Z,68.69
2022-11-07T17:56:24.956Z,69.03
2022-11-07T18:01:23.320Z,68.65
2022-11-07T18:06:15.297Z,68.22
2022-11-07T18:11:07.148Z,68.54
2022-11-07T18:15:59.640Z,68.74
2022-11-07T18:20:51.349Z,68.70
2022-11-07T18:25:43.720Z,68.68
2022-11-07T18:30:36.557Z,68.83
2022-11-07T18:35:28.376Z,69.26
2022-11-07T18:40:21.088Z,69.07
2022-11-07T18:45:13.585Z,69.86
2022-11-07T18:50:06.837Z,70.05
2022-11-07T18:54:58.543Z,70.75
2022-11-07T18:59:50.242Z,71.14
2022-11-07T19:04:43.936Z,71.61
2022-11-07T19:09:36.798Z,71.52
2022-11-07T19:14:31.476Z,71.39
2022-11-07T19:19:23.727Z,71.09
2022-11-07T19:24:16.708Z,71.20
2022-11-07T19:29:12.405Z,71.36
2022-11-07T19:34:04.979Z,71.81
2022-11-07T19:38:56.583Z,72.26
2022-11-07T19:43:50.119Z,72.50
2022-11-07T19:48:42.705Z,72.84
2022-11-07T19:53:34.477Z,72.86
2022-11-07T19:58:26.103Z,72.79
2022-11-07T20:03:18.207Z,73.31
2022-11-07T20:08:10.094Z,74.21
2022-11-07T20:13:01.760Z,74.80
2022-11-07T20:17:53.341Z,75.39
2022-11-07T20:22:47.571Z,75.67
2022-11-07T20:27:39.271Z,75.93
2022-11-07T20:32:30.932Z,75.97
2022-11-07T20:37:22.738Z,76.46
2022-11-07T20:42:14.479Z,76.38
2022-11-07T20:47:06.106Z,76.46
2022-11-07T20:51:58.369Z,77.00
2022-11-07T20:56:50.411Z,76.87
2022-11-07T21:01:42.464Z,76.87
2022-11-07T21:06:35.206Z,77.44
2022-11-07T21:11:28.335Z,77.53
2022-11-07T21:16:21.849Z,78.23
2022-11-07T21:21:16.551Z,78.65
2022-11-07T21:26:11.615Z,78.79
2022-11-07T21:31:05.886Z,77.37
2022-11-07T21:35:57.623Z,77.67
2022-11-07T21:40:49.484Z,78.18
2022-11-07T21:45:41.126Z,78.83
2022-11-07T21:50:44.778Z,79.78
2022-11-07T21:55:37.196Z,79.58
2022-11-07T22:00:33.119Z,79.55
2022-11-07T22:05:27.693Z,79.82
2022-11-07T22:10:19.300Z,79.87
2022-11-07T22:15:11.050Z,79.52
2022-11-07T22:20:02.675Z,80.11
2022-11-07T22:24:54.340Z,79.90
2022-11-07T22:29:46.895Z,80.00
2022-11-07T22:34:38.586Z,80.39
2022-11-07T22:39:30.179Z,80.22
2022-11-07T22:44:21.853Z,80.63
2022-11-07T22:49:13.489Z,80.35
2022-11-07T22:54:08.035Z,79.85
2022-11-07T22:58:59.989Z,80.11
2022-11-07T23:03:53.062Z,80.09
2022-11-07T23:08:45.046Z,80.25
2022-11-07T23:13:36.690Z,80.96
2022-11-07T23:18:28.319Z,80.51
2022-11-07T23:23:19.968Z,80.52
2022-11-07T23:28:11.570Z,80.18
2022-11-07T23:33:03.391Z,80.30
2022-11-07T23:37:54.966Z,80.45
2022-11-07T23:42:46.748Z,80.12
2022-11-07T23:47:57.034Z,78.64
2022-11-07T23:52:48.666Z,77.47
2022-11-07T23:57:59.028Z,77.15
